createdAt,value
2022-10-31T00:01:37.344Z,25.20
2022-10-31T00:04:11.445Z,20.20
2022-10-31T00:12:27.596Z,19.70
2022-10-31T00:17:55.089Z,25.73
2022-10-31T00:20:36.981Z,22.13
2022-10-31T00:26:22.095Z,23.90
2022-10-31T00:28:49.155Z,26.23
2022-10-31T00:31:16.339Z,22.70
2022-10-31T00:33:44.063Z,26.50
2022-10-31T00:36:17.358Z,22.43
2022-10-31T00:38:45.100Z,25.40
2022-10-31T00:41:13.283Z,25.97
2022-10-31T00:43:40.373Z,21.47
2022-10-31T00:46:33.552Z,24.57
2022-10-31T00:58:09.620Z,22.30
2022-10-31T01:00:48.040Z,21.97
2022-10-31T01:03:45.361Z,29.40
2022-10-31T01:09:45.104Z,30.97
2022-10-31T01:12:32.110Z,29.83
2022-10-31T01:15:18.574Z,24.43
2022-10-31T01:21:35.475Z,21.87
2022-10-31T01:27:21.586Z,24.37
2022-10-31T01:29:59.535Z,25.30
2022-10-31T01:32:39.124Z,23.70
2022-10-31T01:35:29.012Z,24.20
2022-10-31T01:37:58.467Z,27.40
2022-10-31T01:46:40.139Z,28.03
2022-10-31T01:49:18.863Z,24.23
2022-10-31T01:58:30.404Z,25.43
2022-10-31T02:04:28.226Z,22.53
2022-10-31T02:07:19.099Z,25.47
2022-10-31T02:10:05.467Z,24.40
2022-10-31T02:12:49.347Z,25.93
2022-10-31T02:19:14.993Z,18.50
2022-10-31T02:30:04.646Z,23.57
2022-10-31T02:33:25.041Z,25.10
2022-10-31T02:36:49.780Z,25.10
2022-10-31T02:46:46.399Z,22.77
2022-10-31T02:50:17.015Z,25.33
2022-10-31T02:52:57.144Z,24.63
2022-10-31T02:56:22.673Z,29.13
2022-10-31T02:59:21.679Z,25.83
2022-10-31T03:03:16.113Z,28.80
2022-10-31T03:06:40.171Z,25.40
2022-10-31T03:10:21.273Z,24.93
2022-10-31T03:13:42.473Z,26.37
2022-10-31T03:20:09.464Z,26.10
2022-10-31T03:23:02.048Z,26.33
2022-10-31T03:25:50.685Z,28.73
2022-10-31T03:35:37.059Z,26.27
2022-10-31T03:38:24.584Z,23.33
2022-10-31T03:44:14.031Z,19.43
2022-10-31T04:04:51.403Z,20.57
2022-10-31T04:10:40.074Z,21.33
2022-10-31T04:13:27.543Z,21.43
2022-10-31T04:15:55.906Z,24.20
2022-10-31T04:18:24.754Z,22.57
2022-10-31T04:21:03.648Z,21.93
2022-10-31T04:23:30.939Z,21.27
2022-10-31T04:26:01.535Z,23.97
2022-10-31T04:36:56.875Z,32.93
2022-10-31T04:39:34.640Z,27.77
2022-10-31T04:42:09.915Z,27.17
2022-10-31T04:44:54.587Z,23.43
2022-10-31T04:47:33.614Z,21.57
2022-10-31T04:53:18.339Z,21.90
2022-10-31T04:58:49.778Z,19.57
2022-10-31T05:01:38.508Z,21.60
2022-10-31T05:21:09.528Z,30.27
2022-10-31T05:26:21.647Z,24.20
2022-10-31T05:28:50.659Z,19.43
2022-10-31T05:31:20.248Z,23.70
2022-10-31T05:40:16.710Z,20.17
2022-10-31T05:42:47.102Z,24.33
2022-10-31T05:45:39.317Z,29.63
2022-10-31T05:48:08.194Z,24.37
2022-10-31T05:50:46.488Z,22.80
2022-10-31T05:56:25.799Z,17.83
2022-10-31T05:59:01.220Z,18.27
2022-10-31T06:01:58.967Z,17.67
2022-10-31T06:04:30.850Z,20.63
2022-10-31T06:07:01.550Z,21.77
2022-10-31T06:09:54.484Z,19.67
2022-10-31T06:12:39.381Z,31.33
2022-10-31T06:15:46.819Z,21.33
2022-10-31T06:18:23.563Z,20.00
2022-10-31T06:21:08.333Z,21.00
2022-10-31T06:26:56.410Z,37.50
2022-10-31T06:32:58.749Z,22.57
2022-10-31T06:35:40.173Z,27.60
2022-10-31T06:44:14.048Z,22.97
2022-10-31T06:46:50.276Z,18.10
2022-10-31T06:49:22.807Z,16.93
2022-10-31T06:51:57.449Z,18.00
2022-10-31T07:00:21.010Z,19.53
2022-10-31T07:03:14.003Z,17.03
2022-10-31T07:11:37.016Z,18.23
2022-10-31T07:19:45.945Z,16.97
2022-10-31T07:22:27.162Z,16.87
2022-10-31T07:25:22.226Z,21.63
2022-10-31T07:34:17.552Z,15.50
2022-10-31T07:36:57.074Z,17.33
2022-10-31T07:39:44.009Z,15.40
2022-10-31T07:42:14.452Z,15.67
2022-10-31T07:48:05.839Z,15.73
2022-10-31T07:50:41.375Z,17.17
2022-10-31T07:53:44.854Z,15.70
2022-10-31T07:56:36.291Z,15.93
2022-10-31T07:59:19.391Z,14.97
2022-10-31T08:01:58.448Z,15.90
2022-10-31T08:10:59.285Z,15.47
2022-10-31T08:25:01.959Z,15.57
2022-10-31T08:27:31.316Z,16.57
2022-10-31T08:30:05.636Z,16.30
2022-10-31T08:32:32.452Z,23.47
2022-10-31T08:34:59.782Z,20.03
2022-10-31T08:37:32.265Z,17.80
2022-10-31T08:40:09.842Z,18.33
2022-10-31T08:42:44.523Z,22.17
2022-10-31T08:48:53.576Z,19.13
2022-10-31T08:51:37.583Z,22.47
2022-10-31T08:54:21.097Z,23.20
2022-10-31T08:57:10.443Z,21.60
2022-10-31T09:00:06.201Z,22.53
2022-10-31T09:11:21.346Z,24.53
2022-10-31T09:16:47.858Z,28.53
2022-10-31T09:19:32.502Z,25.63
2022-10-31T09:24:51.658Z,23.93
2022-10-31T09:27:18.461Z,27.13
2022-10-31T09:29:45.227Z,27.53
2022-10-31T09:32:12.099Z,24.77
2022-10-31T09:35:03.867Z,33.27
2022-10-31T09:37:37.834Z,32.17
2022-10-31T09:43:40.728Z,31.17
2022-10-31T09:47:01.177Z,30.50
2022-10-31T09:53:27.687Z,30.57
2022-10-31T09:56:22.039Z,31.07
2022-10-31T09:58:58.898Z,39.43
2022-10-31T10:05:10.484Z,27.33
2022-10-31T10:08:08.896Z,28.77
2022-10-31T10:18:00.008Z,29.97
2022-10-31T10:21:00.347Z,28.90
2022-10-31T10:28:06.196Z,30.77
2022-10-31T10:31:40.530Z,27.27
2022-10-31T10:37:52.946Z,27.53
2022-10-31T10:43:53.311Z,33.03
2022-10-31T10:47:11.728Z,29.87
2022-10-31T10:53:57.266Z,26.07
2022-10-31T11:00:09.264Z,29.93
2022-10-31T11:02:49.015Z,32.60
2022-10-31T11:06:01.225Z,30.97
2022-10-31T11:24:41.857Z,28.77
2022-10-31T11:27:37.776Z,26.67
2022-10-31T11:40:12.128Z,23.90
2022-10-31T11:49:15.300Z,17.50
2022-10-31T11:52:02.172Z,21.53
2022-10-31T11:55:02.403Z,17.57
2022-10-31T11:57:52.294Z,20.13
2022-10-31T12:03:57.880Z,19.30
2022-10-31T12:07:04.585Z,16.90
2022-10-31T12:19:05.767Z,22.00
2022-10-31T12:22:19.395Z,19.23
2022-10-31T12:25:17.957Z,22.77
2022-10-31T12:27:59.546Z,22.17
2022-10-31T12:37:59.111Z,23.87
2022-10-31T12:47:44.955Z,20.57
2022-10-31T12:50:38.085Z,21.10
2022-10-31T12:57:44.092Z,31.03
2022-10-31T13:00:17.156Z,23.80
2022-10-31T13:02:51.033Z,30.00
2022-10-31T13:05:39.982Z,25.27
2022-10-31T13:08:18.144Z,21.80
2022-10-31T13:10:52.881Z,24.60
2022-10-31T13:13:28.509Z,24.63
2022-10-31T13:16:12.394Z,25.70
2022-10-31T13:18:55.343Z,29.17
2022-10-31T13:21:31.206Z,29.20
2022-10-31T13:24:02.723Z,31.03
2022-10-31T13:26:49.917Z,32.40
2022-10-31T13:29:33.003Z,30.17
2022-10-31T13:32:05.115Z,34.00
2022-10-31T13:34:40.390Z,28.73
2022-10-31T13:37:13.418Z,33.23
2022-10-31T13:40:01.950Z,33.33
2022-10-31T13:42:41.648Z,33.87
2022-10-31T13:45:18.320Z,33.00
2022-10-31T13:48:07.795Z,30.00
2022-10-31T13:50:34.583Z,39.03
2022-10-31T13:53:21.149Z,34.57
2022-10-31T13:56:04.007Z,32.03
2022-10-31T13:58:32.501Z,29.17
2022-10-31T14:01:23.152Z,37.57
2022-10-31T14:04:25.231Z,37.50
2022-10-31T14:07:11.493Z,36.67
2022-10-31T14:09:54.313Z,34.90
2022-10-31T14:12:45.703Z,33.87
2022-10-31T14:15:25.649Z,34.20
2022-10-31T14:17:56.500Z,37.47
2022-10-31T14:20:38.409Z,35.57
2022-10-31T14:23:30.886Z,35.23
2022-10-31T14:26:20.888Z,41.00
2022-10-31T14:28:49.432Z,30.20
2022-10-31T14:31:44.380Z,34.00
2022-10-31T14:34:26.386Z,37.13
2022-10-31T14:37:17.840Z,29.30
2022-10-31T14:39:56.559Z,32.07
2022-10-31T14:42:34.021Z,31.70
2022-10-31T14:45:29.494Z,39.50
2022-10-31T14:48:26.093Z,37.03
2022-10-31T14:50:55.794Z,32.80
2022-10-31T14:53:27.489Z,36.20
2022-10-31T14:55:56.059Z,33.23
2022-10-31T14:58:32.801Z,28.97
2022-10-31T15:01:00.005Z,35.80
2022-10-31T15:04:03.626Z,35.50
2022-10-31T15:06:45.145Z,33.77
2022-10-31T15:09:34.356Z,35.13
2022-10-31T15:12:15.822Z,30.67
2022-10-31T15:14:42.602Z,38.20
2022-10-31T15:17:12.610Z,35.03
2022-10-31T15:19:39.884Z,34.57
2022-10-31T15:22:10.433Z,35.27
2022-10-31T15:24:39.844Z,34.10
2022-10-31T15:27:11.672Z,35.90
2022-10-31T15:29:49.334Z,28.37
2022-10-31T15:32:23.333Z,31.87
2022-10-31T15:34:52.521Z,30.00
2022-10-31T15:37:21.703Z,30.87
2022-10-31T15:39:49.950Z,32.53
2022-10-31T15:42:34.073Z,30.47
2022-10-31T15:45:17.268Z,29.47
2022-10-31T15:48:00.214Z,33.23
2022-10-31T15:50:36.636Z,29.53
2022-10-31T15:53:05.420Z,32.13
2022-10-31T15:55:39.021Z,34.93
2022-10-31T15:58:13.616Z,31.13
2022-10-31T16:00:40.393Z,33.50
2022-10-31T16:03:20.055Z,27.87
2022-10-31T16:05:50.909Z,25.57
2022-10-31T16:08:29.845Z,28.80
2022-10-31T16:11:01.277Z,27.33
2022-10-31T16:13:34.982Z,28.37
2022-10-31T16:16:32.794Z,23.30
2022-10-31T16:18:52.741Z,27.73
2022-10-31T16:21:31.565Z,24.70
2022-10-31T16:24:18.925Z,24.37
2022-10-31T16:26:51.036Z,29.77
2022-10-31T16:29:36.644Z,25.67
2022-10-31T16:32:03.849Z,23.90
2022-10-31T16:34:30.654Z,20.27
2022-10-31T16:36:57.623Z,25.40
2022-10-31T16:39:24.418Z,20.70
2022-10-31T16:41:57.195Z,30.87
2022-10-31T16:44:26.505Z,19.67
2022-10-31T16:47:09.736Z,28.23
2022-10-31T16:49:36.460Z,22.17
2022-10-31T16:52:03.161Z,22.90
2022-10-31T16:54:30.579Z,26.97
2022-10-31T16:56:59.775Z,23.37
2022-10-31T16:59:28.183Z,21.00
2022-10-31T17:01:55.979Z,21.80
2022-10-31T17:04:23.311Z,26.43
2022-10-31T17:06:50.028Z,28.77
2022-10-31T17:09:17.174Z,27.27
2022-10-31T17:11:49.622Z,23.87
2022-10-31T17:14:17.773Z,26.37
2022-10-31T17:16:44.592Z,28.60
2022-10-31T17:19:12.562Z,27.37
2022-10-31T17:21:40.005Z,21.93
2022-10-31T17:24:09.017Z,25.43
2022-10-31T17:26:35.792Z,27.43
2022-10-31T17:29:03.585Z,31.57
2022-10-31T17:31:36.319Z,29.00
2022-10-31T17:34:06.563Z,25.80
2022-10-31T17:36:34.688Z,31.47
2022-10-31T17:39:01.875Z,26.83
2022-10-31T17:41:28.571Z,28.33
2022-10-31T17:43:59.791Z,26.53
2022-10-31T17:46:27.691Z,23.87
2022-10-31T17:48:54.491Z,25.07
2022-10-31T17:51:21.200Z,26.37
2022-10-31T17:53:47.963Z,22.93
2022-10-31T17:56:14.745Z,30.93
2022-10-31T17:58:41.508Z,23.00
2022-10-31T18:01:14.072Z,28.40
2022-10-31T18:03:41.548Z,27.53
2022-10-31T18:06:10.631Z,28.97
2022-10-31T18:08:39.529Z,26.43
2022-10-31T18:11:17.110Z,28.97
2022-10-31T18:13:44.294Z,24.07
2022-10-31T18:16:14.678Z,25.73
2022-10-31T18:18:41.793Z,26.77
2022-10-31T18:21:08.663Z,20.30
2022-10-31T18:23:35.463Z,27.20
2022-10-31T18:26:02.314Z,23.83
2022-10-31T18:28:29.070Z,26.93
2022-10-31T18:30:59.450Z,22.43
2022-10-31T18:33:26.325Z,24.47
2022-10-31T18:35:53.042Z,32.63
2022-10-31T18:38:19.840Z,22.33
2022-10-31T18:40:46.637Z,28.40
2022-10-31T18:43:13.687Z,30.27
2022-10-31T18:45:47.275Z,26.30
2022-10-31T18:48:16.216Z,30.73
2022-10-31T18:50:43.444Z,21.50
2022-10-31T18:53:10.172Z,24.87
2022-10-31T18:55:44.129Z,24.50
2022-10-31T18:58:14.395Z,24.77
2022-10-31T19:00:41.380Z,22.17
2022-10-31T19:03:08.082Z,21.53
2022-10-31T19:05:34.964Z,26.10
2022-10-31T19:08:01.749Z,22.93
2022-10-31T19:10:28.548Z,24.20
2022-10-31T19:12:55.378Z,23.83
2022-10-31T19:15:22.310Z,21.60
2022-10-31T19:17:49.448Z,20.30
2022-10-31T19:20:16.452Z,28.97
2022-10-31T19:22:43.690Z,23.80
2022-10-31T19:25:11.182Z,23.43
2022-10-31T19:27:38.789Z,24.90
2022-10-31T19:30:07.046Z,26.10
2022-10-31T19:32:34.120Z,24.33
2022-10-31T19:35:01.098Z,26.13
2022-10-31T19:37:27.908Z,23.17
2022-10-31T19:39:54.651Z,23.90
2022-10-31T19:42:21.649Z,26.43
2022-10-31T19:44:48.489Z,25.00
2022-10-31T19:47:15.277Z,18.43
2022-10-31T19:49:42.006Z,23.83
2022-10-31T19:52:08.774Z,26.53
2022-10-31T19:54:36.051Z,25.43
2022-10-31T19:57:03.104Z,26.73
2022-10-31T19:59:29.846Z,25.27
2022-10-31T20:01:56.688Z,22.10
2022-10-31T20:04:23.791Z,25.33
2022-10-31T20:06:50.838Z,21.97
2022-10-31T20:09:18.127Z,24.03
2022-10-31T20:11:46.315Z,21.40
2022-10-31T20:14:16.925Z,22.73
2022-10-31T20:16:45.195Z,26.63
2022-10-31T20:19:11.961Z,30.73
2022-10-31T20:21:40.644Z,41.53
2022-10-31T20:24:09.531Z,42.30
2022-10-31T20:26:38.171Z,41.30
2022-10-31T20:29:05.558Z,41.20
2022-10-31T20:31:35.064Z,36.13
2022-10-31T20:34:02.555Z,35.73
2022-10-31T20:36:30.956Z,27.87
2022-10-31T20:41:41.918Z,27.40
2022-10-31T20:44:08.841Z,28.53
2022-10-31T20:46:46.250Z,26.17
2022-10-31T20:49:13.276Z,27.47
2022-10-31T20:51:40.121Z,28.20
2022-10-31T20:54:07.109Z,27.20
2022-10-31T20:56:33.796Z,29.17
2022-10-31T20:59:00.974Z,22.57
2022-10-31T21:01:30.146Z,23.20
2022-10-31T21:03:58.552Z,26.50
2022-10-31T21:06:26.049Z,28.60
2022-10-31T21:08:53.975Z,27.67
2022-10-31T21:11:23.089Z,27.57
2022-10-31T21:13:50.878Z,25.67
2022-10-31T21:16:34.082Z,25.40
2022-10-31T21:19:01.525Z,29.47
2022-10-31T21:21:35.915Z,26.33
2022-10-31T21:24:08.723Z,25.60
2022-10-31T21:26:39.304Z,24.67
2022-10-31T21:29:07.287Z,27.20
2022-10-31T21:31:37.136Z,23.40
2022-10-31T21:34:04.525Z,27.73
2022-10-31T21:36:31.786Z,26.10
2022-10-31T21:38:58.791Z,24.83
2022-10-31T21:41:26.298Z,24.47
2022-10-31T21:43:54.381Z,19.57
2022-10-31T21:46:30.279Z,36.27
2022-10-31T21:48:57.881Z,27.90
2022-10-31T21:51:31.040Z,26.10
2022-10-31T21:54:17.064Z,24.97
2022-10-31T21:56:44.243Z,29.17
2022-10-31T21:59:11.310Z,26.60
2022-10-31T22:02:12.788Z,29.43
2022-10-31T22:04:43.212Z,23.77
2022-10-31T22:07:10.488Z,19.23
2022-10-31T22:09:39.018Z,19.30
2022-10-31T22:12:08.986Z,23.67
2022-10-31T22:14:35.794Z,25.67
2022-10-31T22:17:02.806Z,19.07
2022-10-31T22:19:29.603Z,24.57
2022-10-31T22:21:56.342Z,23.03
2022-10-31T22:24:23.382Z,21.30
2022-10-31T22:26:50.147Z,18.30
2022-10-31T22:29:19.083Z,22.33
2022-10-31T22:31:50.733Z,21.03
2022-10-31T22:34:20.384Z,18.27
2022-10-31T22:36:47.399Z,18.37
2022-10-31T22:39:14.513Z,25.90
2022-10-31T22:41:41.968Z,22.10
2022-10-31T22:44:08.857Z,17.97
2022-10-31T22:46:37.591Z,18.07
2022-10-31T22:49:14.770Z,25.23
2022-10-31T22:51:43.125Z,19.23
2022-10-31T22:54:15.304Z,25.97
2022-10-31T22:56:42.291Z,16.93
2022-10-31T22:59:12.291Z,15.00
2022-10-31T23:01:39.166Z,17.87
2022-10-31T23:04:06.106Z,18.77
2022-10-31T23:06:33.846Z,17.97
2022-10-31T23:09:03.556Z,17.27
2022-10-31T23:11:39.285Z,19.63
2022-10-31T23:14:10.829Z,19.83
2022-10-31T23:16:41.641Z,15.23
2022-10-31T23:19:10.877Z,20.17
2022-10-31T23:22:15.842Z,16.53
2022-10-31T23:24:44.820Z,14.67
2022-10-31T23:27:17.314Z,19.87
2022-10-31T23:29:45.535Z,17.57
2022-10-31T23:32:19.207Z,17.00
2022-10-31T23:34:47.463Z,15.87
2022-10-31T23:37:14.792Z,18.50
2022-10-31T23:39:41.692Z,25.17
2022-10-31T23:42:09.039Z,18.07
2022-10-31T23:44:36.374Z,16.53
2022-10-31T23:47:03.646Z,15.03
2022-10-31T23:49:30.716Z,15.93
2022-10-31T23:51:57.976Z,16.43
2022-10-31T23:54:26.211Z,14.43
2022-10-31T23:56:54.064Z,15.03
2022-10-31T23:59:22.875Z,13.53
